createdAt,value
2018-03-22T00:01:15.090Z,1.90
2018-03-22T00:03:42.706Z,1.90
2018-03-22T00:06:11.081Z,1.90
2018-03-22T00:08:46.037Z,2.00
2018-03-22T00:11:13.619Z,1.90
2018-03-22T00:13:41.199Z,1.70
2018-03-22T00:16:09.591Z,1.70
2018-03-22T00:18:37.210Z,1.80
2018-03-22T00:21:07.461Z,1.70
2018-03-22T00:23:36.616Z,1.80
2018-03-22T00:26:04.257Z,1.80
2018-03-22T00:28:33.195Z,1.90
2018-03-22T00:31:00.810Z,1.80
2018-03-22T00:33:32.728Z,1.80
2018-03-22T00:36:02.019Z,1.80
2018-03-22T00:38:30.325Z,1.70
2018-03-22T00:40:57.936Z,1.80
2018-03-22T00:43:25.547Z,1.70
2018-03-22T00:45:53.925Z,1.70
2018-03-22T00:48:21.754Z,1.80
2018-03-22T00:50:51.579Z,1.80
2018-03-22T00:53:21.141Z,1.80
2018-03-22T00:55:50.640Z,1.80
2018-03-22T00:58:19.711Z,1.70
2018-03-22T01:00:48.260Z,1.60
2018-03-22T01:03:15.836Z,1.60
2018-03-22T01:05:43.445Z,1.60
2018-03-22T01:08:11.041Z,1.60
2018-03-22T01:10:38.658Z,1.60
2018-03-22T01:13:06.260Z,1.50
2018-03-22T01:15:33.867Z,1.50
2018-03-22T01:18:02.227Z,1.50
2018-03-22T01:20:30.211Z,1.40
2018-03-22T01:22:58.445Z,1.50
2018-03-22T01:25:26.822Z,1.60
2018-03-22T01:27:55.098Z,1.50
2018-03-22T01:30:35.146Z,1.40
2018-03-22T01:33:02.776Z,1.50
2018-03-22T01:35:30.380Z,1.60
2018-03-22T01:38:00.127Z,1.60
2018-03-22T01:40:27.775Z,1.60
2018-03-22T01:42:55.390Z,1.60
2018-03-22T01:45:23.110Z,1.40
2018-03-22T01:47:50.953Z,1.40
2018-03-22T01:50:19.625Z,1.40
2018-03-22T01:52:59.901Z,1.50
2018-03-22T01:55:27.497Z,1.50
2018-03-22T01:57:55.097Z,1.50
2018-03-22T02:00:25.197Z,1.40
2018-03-22T02:02:53.137Z,1.30
2018-03-22T02:05:21.012Z,1.30
2018-03-22T02:07:48.629Z,1.30
2018-03-22T02:10:16.230Z,1.20
2018-03-22T02:12:43.860Z,1.30
2018-03-22T02:15:11.787Z,1.30
2018-03-22T02:17:40.276Z,1.10
2018-03-22T02:20:08.849Z,1.20
2018-03-22T02:22:37.208Z,1.00
2018-03-22T02:25:04.789Z,1.00
2018-03-22T02:27:32.783Z,1.00
2018-03-22T02:30:00.774Z,1.10
2018-03-22T02:32:29.164Z,1.10
2018-03-22T02:34:56.750Z,1.20
2018-03-22T02:37:25.528Z,1.10
2018-03-22T02:39:53.352Z,1.10
2018-03-22T02:42:21.068Z,1.10
2018-03-22T02:44:49.117Z,1.00
2018-03-22T02:47:16.704Z,1.00
2018-03-22T02:49:45.093Z,0.80
2018-03-22T02:52:13.617Z,0.80
2018-03-22T02:54:41.958Z,0.70
2018-03-22T02:57:09.763Z,0.80
2018-03-22T02:59:37.763Z,0.80
2018-03-22T03:02:05.356Z,0.80
2018-03-22T03:04:33.720Z,0.80
2018-03-22T03:07:02.075Z,0.70
2018-03-22T03:09:30.436Z,0.80
2018-03-22T03:11:58.574Z,0.80
2018-03-22T03:14:26.524Z,0.70
2018-03-22T03:16:54.721Z,0.80
2018-03-22T03:19:22.382Z,0.80
2018-03-22T03:21:49.967Z,0.80
2018-03-22T03:24:17.565Z,0.80
2018-03-22T03:26:45.399Z,0.70
2018-03-22T03:29:14.221Z,0.70
2018-03-22T03:31:41.919Z,0.60
2018-03-22T03:34:15.147Z,0.60
2018-03-22T03:36:44.100Z,0.60
2018-03-22T03:39:12.170Z,0.50
2018-03-22T03:41:40.633Z,0.40
2018-03-22T03:44:09.298Z,0.40
2018-03-22T03:46:36.951Z,0.30
2018-03-22T03:49:04.593Z,0.30
2018-03-22T03:51:32.767Z,0.40
2018-03-22T03:54:00.367Z,0.50
2018-03-22T03:56:35.012Z,0.50
2018-03-22T03:59:03.535Z,0.50
2018-03-22T04:01:31.826Z,0.40
2018-03-22T04:04:00.167Z,0.40
2018-03-22T04:06:27.827Z,0.40
2018-03-22T04:08:59.202Z,0.30
2018-03-22T04:11:27.371Z,0.40
2018-03-22T04:13:55.348Z,0.40
2018-03-22T04:16:23.133Z,0.50
2018-03-22T04:18:51.376Z,0.50
2018-03-22T04:21:19.233Z,0.50
2018-03-22T04:23:46.843Z,0.50
2018-03-22T04:26:14.482Z,0.30
2018-03-22T04:28:42.745Z,0.30
2018-03-22T04:31:10.944Z,0.20
2018-03-22T04:33:38.543Z,0.30
2018-03-22T04:36:07.050Z,0.30
2018-03-22T04:38:34.681Z,0.30
2018-03-22T04:41:02.335Z,0.20
2018-03-22T04:43:30.753Z,0.30
2018-03-22T04:45:58.560Z,0.30
2018-03-22T04:48:27.305Z,0.30
2018-03-22T04:51:01.763Z,0.40
2018-03-22T04:53:30.253Z,0.40
2018-03-22T04:55:58.360Z,0.40
2018-03-22T04:58:26.047Z,0.40
2018-03-22T05:00:53.767Z,0.30
2018-03-22T05:03:21.488Z,0.20
2018-03-22T05:05:49.212Z,1.50
2018-03-22T05:08:16.890Z,0.40
2018-03-22T05:10:44.585Z,0.40
2018-03-22T05:13:12.963Z,0.30
2018-03-22T05:15:41.318Z,0.30
2018-03-22T05:18:09.622Z,0.30
2018-03-22T05:20:37.257Z,0.40
2018-03-22T05:23:05.466Z,0.40
2018-03-22T05:25:33.680Z,0.30
2018-03-22T05:28:02.217Z,0.50
2018-03-22T05:30:30.596Z,0.50
2018-03-22T05:32:58.198Z,0.60
2018-03-22T05:35:26.187Z,0.50
2018-03-22T05:37:53.785Z,0.50
2018-03-22T05:40:21.391Z,0.50
2018-03-22T05:42:48.994Z,0.60
2018-03-22T05:45:17.268Z,0.60
2018-03-22T05:47:46.118Z,0.60
2018-03-22T05:50:14.103Z,0.70
2018-03-22T05:52:42.453Z,0.80
2018-03-22T05:55:10.064Z,0.80
2018-03-22T05:57:37.694Z,0.80
2018-03-22T06:00:05.284Z,1.00
2018-03-22T06:02:32.890Z,1.10
2018-03-22T06:05:00.475Z,1.20
2018-03-22T06:07:28.337Z,1.20
2018-03-22T06:09:56.208Z,1.20
2018-03-22T06:12:24.644Z,1.10
2018-03-22T06:14:53.097Z,1.10
2018-03-22T06:17:20.726Z,1.30
2018-03-22T06:19:48.715Z,1.10
2018-03-22T06:22:17.093Z,1.20
2018-03-22T06:24:44.727Z,1.40
2018-03-22T06:27:12.740Z,1.60
2018-03-22T06:29:40.344Z,1.80
2018-03-22T06:32:07.976Z,1.80
2018-03-22T06:34:36.380Z,1.80
2018-03-22T06:37:04.841Z,1.90
2018-03-22T06:39:33.102Z,1.80
2018-03-22T06:42:01.086Z,1.90
2018-03-22T06:44:28.745Z,1.90
2018-03-22T06:46:57.097Z,2.10
2018-03-22T06:49:24.719Z,2.30
2018-03-22T06:51:52.681Z,2.30
2018-03-22T06:54:21.404Z,2.30
2018-03-22T06:56:49.041Z,2.50
2018-03-22T06:59:18.519Z,2.60
2018-03-22T07:01:46.973Z,2.50
2018-03-22T07:04:14.591Z,2.60
2018-03-22T07:06:42.166Z,2.70
2018-03-22T07:09:10.516Z,2.50
2018-03-22T07:11:39.360Z,2.50
2018-03-22T07:14:08.485Z,2.80
2018-03-22T07:16:36.842Z,3.00
2018-03-22T07:19:04.472Z,2.90
2018-03-22T07:21:32.053Z,2.80
2018-03-22T07:24:04.517Z,2.70
2018-03-22T07:26:33.159Z,2.90
2018-03-22T07:29:01.502Z,2.80
2018-03-22T07:31:29.889Z,2.90
2018-03-22T07:33:58.258Z,3.20
2018-03-22T07:36:26.635Z,3.00
2018-03-22T07:38:55.163Z,2.60
2018-03-22T07:41:24.545Z,2.60
2018-03-22T07:43:52.249Z,2.80
2018-03-22T07:46:20.075Z,3.10
2018-03-22T07:48:48.444Z,3.00
2018-03-22T07:51:16.808Z,2.70
2018-03-22T07:53:45.882Z,3.00
2018-03-22T07:56:13.952Z,3.00
2018-03-22T07:58:41.676Z,2.70
2018-03-22T08:01:10.588Z,3.00
2018-03-22T08:03:38.381Z,3.50
2018-03-22T08:06:06.753Z,3.70
2018-03-22T08:08:34.792Z,3.90
2018-03-22T08:11:02.521Z,4.00
2018-03-22T08:13:31.055Z,3.90
2018-03-22T08:15:58.634Z,4.10
2018-03-22T08:18:27.196Z,3.90
2018-03-22T08:20:55.539Z,3.90
2018-03-22T08:23:23.533Z,4.20
2018-03-22T08:25:51.173Z,4.40
2018-03-22T08:28:20.018Z,4.30
2018-03-22T08:30:48.402Z,3.90
2018-03-22T08:33:16.213Z,3.80
2018-03-22T08:35:44.036Z,3.80
2018-03-22T08:38:13.299Z,4.00
2018-03-22T08:40:40.987Z,4.40
2018-03-22T08:43:08.937Z,4.50
2018-03-22T08:45:36.523Z,4.60
2018-03-22T08:48:04.901Z,4.90
2018-03-22T08:50:32.889Z,4.70
2018-03-22T08:53:01.394Z,5.00
2018-03-22T08:55:29.360Z,4.90
2018-03-22T08:57:56.971Z,4.70
2018-03-22T09:00:24.549Z,5.00
2018-03-22T09:02:52.185Z,5.50
2018-03-22T09:05:20.157Z,5.70
2018-03-22T09:07:48.518Z,5.40
2018-03-22T09:10:17.247Z,5.70
2018-03-22T09:12:45.811Z,5.70
2018-03-22T09:15:13.672Z,6.00
2018-03-22T09:17:41.840Z,6.20
2018-03-22T09:20:10.176Z,6.40
2018-03-22T09:22:38.629Z,6.50
2018-03-22T09:25:07.131Z,6.30
2018-03-22T09:27:35.677Z,6.40
2018-03-22T09:30:03.255Z,6.60
2018-03-22T09:32:30.885Z,6.20
2018-03-22T09:35:00.707Z,6.20
2018-03-22T09:37:30.291Z,6.40
2018-03-22T09:39:58.452Z,6.50
2018-03-22T09:42:27.023Z,6.50
2018-03-22T09:44:54.632Z,6.50
2018-03-22T09:47:22.785Z,6.80
2018-03-22T09:49:50.568Z,6.80
2018-03-22T09:52:18.454Z,7.10
2018-03-22T09:54:46.286Z,7.10
2018-03-22T09:57:14.275Z,7.40
2018-03-22T09:59:42.765Z,7.40
2018-03-22T10:02:10.333Z,7.40
2018-03-22T10:04:37.947Z,7.30
2018-03-22T10:07:05.529Z,7.20
2018-03-22T10:09:34.168Z,7.20
2018-03-22T10:12:02.072Z,7.10
2018-03-22T10:14:30.626Z,7.40
2018-03-22T10:16:58.201Z,7.50
2018-03-22T10:19:25.855Z,7.80
2018-03-22T10:21:53.469Z,7.80
2018-03-22T10:24:21.083Z,7.90
2018-03-22T10:26:48.654Z,7.90
2018-03-22T10:29:17.052Z,8.10
2018-03-22T10:31:45.923Z,7.70
2018-03-22T10:34:13.579Z,7.80
2018-03-22T10:36:41.158Z,7.80
2018-03-22T10:39:09.517Z,8.20
2018-03-22T10:41:37.985Z,8.60
2018-03-22T10:44:06.932Z,9.00
2018-03-22T10:46:34.531Z,9.20
2018-03-22T10:49:02.780Z,9.30
2018-03-22T10:51:30.391Z,9.60
2018-03-22T10:53:57.972Z,9.80
2018-03-22T10:56:25.595Z,9.80
2018-03-22T10:58:53.165Z,9.70
2018-03-22T11:01:26.372Z,9.50
2018-03-22T11:03:55.076Z,9.70
2018-03-22T11:06:23.441Z,9.80
2018-03-22T11:08:51.789Z,9.40
2018-03-22T11:11:19.391Z,9.40
2018-03-22T11:13:46.992Z,9.70
2018-03-22T11:16:16.461Z,9.90
2018-03-22T11:18:44.079Z,9.90
2018-03-22T11:21:11.722Z,9.70
2018-03-22T11:23:39.303Z,9.70
2018-03-22T11:26:07.640Z,9.70
2018-03-22T11:28:36.076Z,9.30
2018-03-22T11:31:05.143Z,8.90
2018-03-22T11:33:33.096Z,8.60
2018-03-22T11:36:02.014Z,8.30
2018-03-22T11:38:29.660Z,8.20
2018-03-22T11:40:57.526Z,8.20
2018-03-22T11:43:26.931Z,8.30
2018-03-22T11:45:56.075Z,8.30
2018-03-22T11:48:23.654Z,8.20
2018-03-22T11:50:51.724Z,8.00
2018-03-22T11:53:20.338Z,8.00
2018-03-22T11:55:48.801Z,8.00
2018-03-22T11:58:17.720Z,7.90
2018-03-22T12:00:46.053Z,7.90
2018-03-22T12:03:14.055Z,8.00
2018-03-22T12:05:42.408Z,7.90
2018-03-22T12:08:09.993Z,7.80
2018-03-22T12:10:38.337Z,7.70
2018-03-22T12:13:06.345Z,7.60
2018-03-22T12:15:34.339Z,7.70
2018-03-22T12:18:02.644Z,7.60
2018-03-22T12:20:30.216Z,7.70
2018-03-22T12:22:58.922Z,7.70
2018-03-22T12:25:26.661Z,7.80
2018-03-22T12:27:54.285Z,7.70
2018-03-22T12:30:22.259Z,7.70
2018-03-22T12:32:50.669Z,7.40
2018-03-22T12:35:19.847Z,7.30
2018-03-22T12:37:47.468Z,7.40
2018-03-22T12:40:15.666Z,7.40
2018-03-22T12:42:43.685Z,7.30
2018-03-22T12:45:11.441Z,7.20
2018-03-22T12:47:39.238Z,7.30
2018-03-22T12:50:08.437Z,7.50
2018-03-22T12:52:36.789Z,7.40
2018-03-22T12:55:04.407Z,7.60
2018-03-22T12:57:31.990Z,7.00
2018-03-22T12:59:59.571Z,6.70
2018-03-22T13:02:28.190Z,6.60
2018-03-22T13:04:56.535Z,6.50
2018-03-22T13:07:24.622Z,6.50
2018-03-22T13:09:53.320Z,6.80
2018-03-22T13:12:20.944Z,6.80
2018-03-22T13:14:48.677Z,6.90
2018-03-22T13:17:16.239Z,6.80
2018-03-22T13:19:44.608Z,6.50
2018-03-22T13:22:13.426Z,6.10
2018-03-22T13:24:42.580Z,5.90
2018-03-22T13:27:10.933Z,5.80
2018-03-22T13:29:39.286Z,5.80
2018-03-22T13:32:07.636Z,5.70
2018-03-22T13:34:37.023Z,5.70
2018-03-22T13:37:05.248Z,5.60
2018-03-22T13:39:33.988Z,5.60
2018-03-22T13:42:03.714Z,5.60
2018-03-22T13:44:31.385Z,5.90
2018-03-22T13:46:58.999Z,6.10
2018-03-22T13:49:27.856Z,6.20
2018-03-22T13:51:56.560Z,6.40
2018-03-22T13:54:26.879Z,6.00
2018-03-22T13:56:55.211Z,5.80
2018-03-22T13:59:24.432Z,5.80
2018-03-22T14:01:52.581Z,5.90
2018-03-22T14:04:20.298Z,5.90
2018-03-22T14:06:49.343Z,5.50
2018-03-22T14:09:18.241Z,5.50
2018-03-22T14:11:45.844Z,5.50
2018-03-22T14:14:14.378Z,5.50
2018-03-22T14:16:41.961Z,5.60
2018-03-22T14:19:10.924Z,5.50
2018-03-22T14:21:38.924Z,5.30
2018-03-22T14:24:07.669Z,5.40
2018-03-22T14:26:35.797Z,5.30
2018-03-22T14:29:03.798Z,5.00
2018-03-22T14:31:32.440Z,4.90
2018-03-22T14:34:00.596Z,4.90
2018-03-22T14:36:28.982Z,5.00
2018-03-22T14:38:59.395Z,4.80
2018-03-22T14:41:27.077Z,4.70
2018-03-22T14:43:55.598Z,4.90
2018-03-22T14:46:23.661Z,5.00
2018-03-22T14:48:51.697Z,5.10
2018-03-22T14:51:19.347Z,5.30
2018-03-22T14:53:46.999Z,5.10
2018-03-22T14:56:15.435Z,5.00
2018-03-22T14:58:44.188Z,4.80
2018-03-22T15:01:12.648Z,4.60
2018-03-22T15:03:40.641Z,4.60
2018-03-22T15:06:09.031Z,4.60
2018-03-22T15:08:37.028Z,4.50
2018-03-22T15:11:05.422Z,4.60
2018-03-22T15:13:33.001Z,4.80
2018-03-22T15:16:01.003Z,4.80
2018-03-22T15:18:28.672Z,4.90
2018-03-22T15:20:57.985Z,4.80
2018-03-22T15:23:27.097Z,5.10
2018-03-22T15:25:54.763Z,5.00
2018-03-22T15:28:22.883Z,4.90
2018-03-22T15:30:51.328Z,5.00
2018-03-22T15:33:19.325Z,5.10
2018-03-22T15:35:47.696Z,5.30
2018-03-22T15:38:16.444Z,5.30
2018-03-22T15:40:44.444Z,5.30
2018-03-22T15:43:12.228Z,5.40
2018-03-22T15:45:40.093Z,5.50
2018-03-22T15:48:08.081Z,5.30
2018-03-22T15:50:36.736Z,5.10
2018-03-22T15:53:05.457Z,5.20
2018-03-22T15:55:33.036Z,5.40
2018-03-22T15:58:00.681Z,5.50
2018-03-22T16:00:28.466Z,5.50
2018-03-22T16:02:57.029Z,5.70
2018-03-22T16:05:25.447Z,5.30
2018-03-22T16:07:53.447Z,5.10
2018-03-22T16:10:21.425Z,5.20
2018-03-22T16:12:49.168Z,5.00
2018-03-22T16:15:17.835Z,4.90
2018-03-22T16:17:47.134Z,4.80
2018-03-22T16:20:15.359Z,4.80
2018-03-22T16:22:43.501Z,4.50
2018-03-22T16:25:12.294Z,4.40
2018-03-22T16:27:39.928Z,4.40
2018-03-22T16:30:07.503Z,4.60
2018-03-22T16:32:35.494Z,4.60
2018-03-22T16:35:03.368Z,4.60
2018-03-22T16:37:32.783Z,4.70
2018-03-22T16:40:02.158Z,5.10
2018-03-22T16:42:30.052Z,5.10
2018-03-22T16:44:58.757Z,5.60
2018-03-22T16:47:28.321Z,5.60
2018-03-22T16:49:56.424Z,5.70
2018-03-22T16:52:26.206Z,5.80
2018-03-22T16:54:53.806Z,5.80
2018-03-22T16:57:21.801Z,5.70
2018-03-22T16:59:50.050Z,5.40
2018-03-22T17:02:18.602Z,5.50
2018-03-22T17:04:47.282Z,5.60
2018-03-22T17:07:16.696Z,5.60
2018-03-22T17:09:44.416Z,5.70
2018-03-22T17:12:12.008Z,5.80
2018-03-22T17:14:40.806Z,5.60
2018-03-22T17:17:09.754Z,5.80
2018-03-22T17:19:37.418Z,5.80
2018-03-22T17:22:05.016Z,5.90
2018-03-22T17:24:32.615Z,5.90
2018-03-22T17:27:01.036Z,5.80
2018-03-22T17:29:29.101Z,5.90
2018-03-22T17:31:57.537Z,5.80
2018-03-22T17:34:25.181Z,4.80
2018-03-22T17:36:52.844Z,5.80
2018-03-22T17:39:21.908Z,5.80
2018-03-22T17:41:50.776Z,5.80
2018-03-22T17:44:18.491Z,5.80
2018-03-22T17:46:46.372Z,5.80
2018-03-22T17:49:14.722Z,5.70
2018-03-22T17:51:43.155Z,5.80
2018-03-22T17:54:12.539Z,5.70
2018-03-22T17:56:42.921Z,5.70
2018-03-22T17:59:11.491Z,5.80
2018-03-22T18:01:40.059Z,5.70
2018-03-22T18:04:08.568Z,5.80
2018-03-22T18:06:36.945Z,5.80
2018-03-22T18:09:04.969Z,5.70
2018-03-22T18:11:33.421Z,5.70
2018-03-22T18:14:01.151Z,5.70
2018-03-22T18:16:29.280Z,5.60
2018-03-22T18:18:57.805Z,5.60
2018-03-22T18:21:26.175Z,5.70
2018-03-22T18:23:54.007Z,5.50
2018-03-22T18:26:21.800Z,5.40
2018-03-22T18:28:49.588Z,5.40
2018-03-22T18:31:17.994Z,5.40
2018-03-22T18:33:45.971Z,5.30
2018-03-22T18:36:13.595Z,5.30
2018-03-22T18:38:41.568Z,5.40
2018-03-22T18:41:10.970Z,5.40
2018-03-22T18:43:38.548Z,5.50
2018-03-22T18:46:07.351Z,5.20
2018-03-22T18:48:36.107Z,5.10
2018-03-22T18:51:04.509Z,5.20
2018-03-22T18:53:32.182Z,5.30
2018-03-22T18:56:00.389Z,5.40
2018-03-22T18:58:28.562Z,5.50
2018-03-22T19:00:56.960Z,5.50
2018-03-22T19:03:25.118Z,5.50
2018-03-22T19:05:53.434Z,5.50
2018-03-22T19:08:21.085Z,5.50
2018-03-22T19:10:48.741Z,5.40
2018-03-22T19:13:17.115Z,5.40
2018-03-22T19:15:45.793Z,5.40
2018-03-22T19:18:14.457Z,5.50
2018-03-22T19:20:42.485Z,5.40
2018-03-22T19:23:10.880Z,5.40
2018-03-22T19:25:38.788Z,5.50
2018-03-22T19:28:07.867Z,5.50
2018-03-22T19:30:36.318Z,5.70
2018-03-22T19:33:04.366Z,5.50
2018-03-22T19:35:32.735Z,5.60
2018-03-22T19:38:00.545Z,5.60
2018-03-22T19:40:28.951Z,5.60
2018-03-22T19:42:56.676Z,5.70
2018-03-22T19:45:25.008Z,5.70
2018-03-22T19:47:52.613Z,5.50
2018-03-22T19:50:21.344Z,5.50
2018-03-22T19:52:49.985Z,5.50
2018-03-22T19:55:17.986Z,5.60
2018-03-22T19:57:45.701Z,5.60
2018-03-22T20:00:13.662Z,5.70
2018-03-22T20:02:41.297Z,5.70
2018-03-22T20:05:09.286Z,5.70
2018-03-22T20:07:37.121Z,5.60
2018-03-22T20:10:04.779Z,5.60
2018-03-22T20:12:33.476Z,5.60
2018-03-22T20:15:01.633Z,5.70
2018-03-22T20:17:29.746Z,5.70
2018-03-22T20:19:58.130Z,5.70
2018-03-22T20:22:26.551Z,5.70
2018-03-22T20:24:54.794Z,5.50
2018-03-22T20:27:23.330Z,5.40
2018-03-22T20:29:51.334Z,5.30
2018-03-22T20:32:19.362Z,5.20
2018-03-22T20:34:48.428Z,5.50
2018-03-22T20:37:16.797Z,5.60
2018-03-22T20:39:45.188Z,5.70
2018-03-22T20:42:13.314Z,5.70
2018-03-22T20:44:41.393Z,5.60
2018-03-22T20:47:09.030Z,5.60
2018-03-22T20:49:36.654Z,5.60
2018-03-22T20:52:04.537Z,5.70
2018-03-22T20:54:32.250Z,5.70
2018-03-22T20:56:59.988Z,5.70
2018-03-22T20:59:27.617Z,5.70
2018-03-22T21:01:55.275Z,5.50
2018-03-22T21:04:23.349Z,5.50
2018-03-22T21:06:50.990Z,5.50
2018-03-22T21:09:19.535Z,5.60
2018-03-22T21:11:47.913Z,5.70
2018-03-22T21:14:15.651Z,5.70
2018-03-22T21:16:43.256Z,5.70
2018-03-22T21:19:11.701Z,5.80
2018-03-22T21:21:39.335Z,5.80
2018-03-22T21:24:06.985Z,5.80
2018-03-22T21:26:40.676Z,5.60
2018-03-22T21:29:08.309Z,5.70
2018-03-22T21:31:35.940Z,5.70
2018-03-22T21:34:04.354Z,5.70
2018-03-22T21:36:32.717Z,5.70
2018-03-22T21:39:01.213Z,5.50
2018-03-22T21:41:28.893Z,5.50
2018-03-22T21:44:09.236Z,5.50
2018-03-22T21:46:37.965Z,5.50
2018-03-22T21:49:05.602Z,5.50
2018-03-22T21:51:34.005Z,5.50
2018-03-22T21:54:01.610Z,5.50
2018-03-22T21:56:29.426Z,5.60
2018-03-22T21:58:57.051Z,5.60
2018-03-22T22:01:25.452Z,5.70
2018-03-22T22:03:53.103Z,5.70
2018-03-22T22:06:20.719Z,5.60
2018-03-22T22:08:48.314Z,5.60
2018-03-22T22:11:16.750Z,5.70
2018-03-22T22:13:44.354Z,5.80
2018-03-22T22:16:12.796Z,5.80
2018-03-22T22:18:40.430Z,5.70
2018-03-22T22:21:08.086Z,5.60
2018-03-22T22:23:36.498Z,5.70
2018-03-22T22:26:04.279Z,2.80
2018-03-22T22:28:32.076Z,5.80
2018-03-22T22:30:59.700Z,5.90
2018-03-22T22:33:27.371Z,5.90
2018-03-22T22:35:55.040Z,4.50
2018-03-22T22:38:22.686Z,5.40
2018-03-22T22:40:50.377Z,5.40
2018-03-22T22:43:18.790Z,5.50
2018-03-22T22:45:46.416Z,5.50
2018-03-22T22:48:14.817Z,5.50
2018-03-22T22:50:42.839Z,5.60
2018-03-22T22:53:10.510Z,5.60
2018-03-22T22:55:38.180Z,5.90
2018-03-22T22:58:05.793Z,5.90
2018-03-22T23:00:33.462Z,5.90
2018-03-22T23:03:01.080Z,5.90
2018-03-22T23:05:29.483Z,6.00
2018-03-22T23:07:57.106Z,5.90
2018-03-22T23:10:24.690Z,6.00
2018-03-22T23:12:52.354Z,6.10
2018-03-22T23:15:20.696Z,6.20
2018-03-22T23:17:48.313Z,6.10
2018-03-22T23:20:15.957Z,6.20
2018-03-22T23:22:43.597Z,6.20
2018-03-22T23:25:11.218Z,4.00
2018-03-22T23:27:38.844Z,6.20
2018-03-22T23:30:06.452Z,6.10
2018-03-22T23:32:34.067Z,5.80
2018-03-22T23:35:01.690Z,5.50
2018-03-22T23:37:29.329Z,5.60
2018-03-22T23:39:57.007Z,5.60
2018-03-22T23:42:24.634Z,5.70
2018-03-22T23:44:52.221Z,5.70
2018-03-22T23:47:19.831Z,5.80
2018-03-22T23:49:47.606Z,5.80
2018-03-22T23:52:15.219Z,5.90
2018-03-22T23:54:42.807Z,6.00
2018-03-22T23:57:10.434Z,6.00
2018-03-22T23:59:38.027Z,6.10
